createdAt,value
2022-11-01T00:07:55.410Z,1572.77045
2022-11-01T00:22:59.874Z,1437.76875
2022-11-01T00:38:02.278Z,1394.38137
2022-11-01T00:53:04.263Z,1381.44381
2022-11-01T01:08:06.134Z,1345.38204
2022-11-01T01:23:08.015Z,1345.38204
2022-11-01T01:38:09.866Z,1340.00051
2022-11-01T01:53:11.748Z,1367.34745
2022-11-01T02:08:13.841Z,1381.44381
2022-11-01T02:23:15.815Z,1380.02111
2022-11-01T02:38:17.684Z,1374.35949
2022-11-01T02:53:19.524Z,1299.70953
2022-11-01T03:08:21.346Z,1317.6013
2022-11-01T03:23:23.235Z,1182.7013
2022-11-01T03:38:25.070Z,1261.77075
2022-11-01T03:53:26.925Z,1416.491
2022-11-01T04:08:28.912Z,1509.0095
2022-11-01T04:23:30.737Z,1578.32794
2022-11-01T04:38:32.596Z,1640.14737
2022-11-01T04:53:34.448Z,1636.14213
2022-11-01T05:08:36.297Z,1637.14161
2022-11-01T05:23:38.153Z,1637.14161
2022-11-01T05:38:40.014Z,1648.21698
2022-11-01T05:53:41.861Z,1763.15839
2022-11-01T06:08:43.700Z,1768.97739
2022-11-01T06:23:45.527Z,1777.18882
2022-11-01T06:38:47.380Z,1760.84149
2022-11-01T06:53:49.206Z,1756.22592
2022-11-01T07:08:51.031Z,1761.99918
2022-11-01T07:23:52.868Z,1866.29576
2022-11-01T07:38:54.684Z,2015.03809
2022-11-01T07:53:56.563Z,2105.26366
2022-11-01T08:08:58.402Z,2168.28529
2022-11-01T08:24:00.239Z,2209.39869
2022-11-01T08:39:02.168Z,2253.99546
2022-11-01T08:54:04.068Z,2278.91207
2022-11-01T09:09:05.880Z,2328.41059
2022-11-01T09:24:07.769Z,2355.0093
2022-11-01T09:39:09.647Z,2403.58795
2022-11-01T09:54:11.519Z,2427.53674
2022-11-01T10:09:13.367Z,2438.58104
2022-11-01T10:24:15.242Z,2474.60808
2022-11-01T10:54:48.990Z,2514.07181
2022-11-01T11:09:50.866Z,2528.3024
2022-11-01T11:24:52.789Z,2542.69501
2022-11-01T11:39:54.665Z,2569.51154
2022-11-01T11:54:56.531Z,2569.51154
2022-11-01T12:09:58.370Z,2596.89974
2022-11-01T12:25:00.223Z,2607.00441
2022-11-01T12:40:02.025Z,2609.54287
2022-11-01T12:55:03.849Z,2596.89974
2022-11-01T13:10:05.649Z,2622.30972
2022-11-01T13:25:07.500Z,2630.02996
2022-11-01T13:40:09.356Z,2414.41493
2022-11-01T13:55:11.180Z,2348.81734
2022-11-01T14:10:13.253Z,2397.13826
2022-11-01T14:25:15.191Z,2418.77307
2022-11-01T14:40:17.083Z,2445.25599
2022-11-01T14:55:18.921Z,2474.60808
2022-11-01T15:10:20.742Z,2504.67341
2022-11-01T15:25:22.593Z,2490.70683
2022-11-01T15:40:24.475Z,2523.541
2022-11-01T15:55:26.430Z,2581.88876
2022-11-01T16:10:28.290Z,2607.00441
2022-11-01T16:25:30.241Z,2554.81462
2022-11-01T16:40:32.083Z,2518.79751
2022-11-01T16:55:36.473Z,2495.34502
2022-11-01T17:10:39.310Z,2523.541
2022-11-01T17:25:41.148Z,2490.70683
2022-11-01T17:40:42.981Z,2490.70683
2022-11-01T17:55:44.790Z,2493.02377
2022-11-01T18:10:46.688Z,2463.23581
2022-11-01T18:25:48.548Z,2533.0818
2022-11-01T18:40:50.374Z,2490.70683
2022-11-01T18:55:52.225Z,2525.91946
2022-11-01T19:10:54.083Z,2601.94227
2022-11-01T19:25:55.909Z,2635.20209
2022-11-01T19:40:57.752Z,2661.37093
2022-11-01T19:55:59.582Z,2607.00441
2022-11-01T20:11:01.440Z,2622.30972
2022-11-01T20:26:03.278Z,2624.87809
2022-11-01T20:41:05.097Z,2567.05033
2022-11-01T20:56:06.917Z,2601.94227
2022-11-01T21:11:08.764Z,2604.47088
2022-11-01T21:26:10.633Z,2617.18802
2022-11-01T21:41:12.503Z,2554.81462
2022-11-01T21:56:14.343Z,2596.89974
2022-11-01T22:11:19.416Z,2622.30972
2022-11-01T22:26:23.735Z,2642.99855
2022-11-01T22:41:28.388Z,2612.08629
2022-11-01T22:56:33.753Z,2627.4515
2022-11-01T23:11:35.581Z,2656.09566
2022-11-01T23:26:37.435Z,2688.06471
2022-11-01T23:41:39.267Z,2604.47088
2022-11-01T23:56:41.076Z,2661.37093
